sensor_id;sensor_type;location;lat;lon;timestamp;temperature;humidity
23618;DHT22;18207;32.078;34.818;2023-07-31T00:01:15;32.10;47.30
23618;DHT22;18207;32.078;34.818;2023-07-31T00:03:46;32.10;46.70
23618;DHT22;18207;32.078;34.818;2023-07-31T00:06:16;32.10;46.80
23618;DHT22;18207;32.078;34.818;2023-07-31T00:08:48;32.10;46.70
23618;DHT22;18207;32.078;34.818;2023-07-31T00:11:19;32.10;46.70
23618;DHT22;18207;32.078;34.818;2023-07-31T00:13:49;32.10;46.70
23618;DHT22;18207;32.078;34.818;2023-07-31T00:16:19;32.10;46.70
23618;DHT22;18207;32.078;34.818;2023-07-31T00:18:49;32.10;46.70
23618;DHT22;18207;32.078;34.818;2023-07-31T00:21:20;32.00;46.60
23618;DHT22;18207;32.078;34.818;2023-07-31T00:23:52;32.00;46.70
23618;DHT22;18207;32.078;34.818;2023-07-31T00:26:21;32.00;46.70
23618;DHT22;18207;32.078;34.818;2023-07-31T00:28:52;32.00;46.70
23618;DHT22;18207;32.078;34.818;2023-07-31T00:31:22;32.00;46.90
23618;DHT22;18207;32.078;34.818;2023-07-31T00:33:52;32.00;46.90
23618;DHT22;18207;32.078;34.818;2023-07-31T00:36:23;32.00;46.90
23618;DHT22;18207;32.078;34.818;2023-07-31T00:38:55;31.90;46.80
23618;DHT22;18207;32.078;34.818;2023-07-31T00:41:25;32.00;46.90
23618;DHT22;18207;32.078;34.818;2023-07-31T00:43:55;31.90;46.90
23618;DHT22;18207;32.078;34.818;2023-07-31T00:46:26;31.90;46.90
23618;DHT22;18207;32.078;34.818;2023-07-31T00:48:56;31.90;47.00
23618;DHT22;18207;32.078;34.818;2023-07-31T00:51:27;31.90;47.00
23618;DHT22;18207;32.078;34.818;2023-07-31T00:54:00;31.90;47.00
23618;DHT22;18207;32.078;34.818;2023-07-31T00:56:31;31.90;47.00
23618;DHT22;18207;32.078;34.818;2023-07-31T00:59:02;31.90;46.90
23618;DHT22;18207;32.078;34.818;2023-07-31T01:01:32;31.90;46.90
23618;DHT22;18207;32.078;34.818;2023-07-31T01:04:03;31.90;47.00
23618;DHT22;18207;32.078;34.818;2023-07-31T01:06:39;31.90;46.90
23618;DHT22;18207;32.078;34.818;2023-07-31T01:09:23;31.90;47.00
23618;DHT22;18207;32.078;34.818;2023-07-31T01:12:01;31.90;47.10
23618;DHT22;18207;32.078;34.818;2023-07-31T01:14:33;31.90;47.10
23618;DHT22;18207;32.078;34.818;2023-07-31T01:17:04;31.90;47.10
23618;DHT22;18207;32.078;34.818;2023-07-31T01:19:34;31.90;47.10
23618;DHT22;18207;32.078;34.818;2023-07-31T01:22:24;31.80;47.10
23618;DHT22;18207;32.078;34.818;2023-07-31T01:25:18;31.90;47.20
23618;DHT22;18207;32.078;34.818;2023-07-31T01:28:05;31.90;47.20
23618;DHT22;18207;32.078;34.818;2023-07-31T01:30:44;31.90;47.10
23618;DHT22;18207;32.078;34.818;2023-07-31T01:33:18;31.90;47.10
23618;DHT22;18207;32.078;34.818;2023-07-31T01:35:49;31.80;47.00
23618;DHT22;18207;32.078;34.818;2023-07-31T01:38:21;31.80;47.10
23618;DHT22;18207;32.078;34.818;2023-07-31T01:40:52;31.80;47.10
23618;DHT22;18207;32.078;34.818;2023-07-31T01:43:24;31.80;47.10
23618;DHT22;18207;32.078;34.818;2023-07-31T01:45:55;31.80;47.20
23618;DHT22;18207;32.078;34.818;2023-07-31T01:48:25;31.80;47.30
23618;DHT22;18207;32.078;34.818;2023-07-31T01:50:55;31.80;47.30
23618;DHT22;18207;32.078;34.818;2023-07-31T01:53:31;31.80;47.30
23618;DHT22;18207;32.078;34.818;2023-07-31T01:56:01;31.80;47.30
23618;DHT22;18207;32.078;34.818;2023-07-31T01:58:33;31.80;47.30
23618;DHT22;18207;32.078;34.818;2023-07-31T02:01:03;31.80;47.30
23618;DHT22;18207;32.078;34.818;2023-07-31T02:03:34;31.80;47.30
23618;DHT22;18207;32.078;34.818;2023-07-31T02:06:04;31.80;47.30
23618;DHT22;18207;32.078;34.818;2023-07-31T02:08:34;31.80;47.40
23618;DHT22;18207;32.078;34.818;2023-07-31T02:11:05;31.80;47.90
23618;DHT22;18207;32.078;34.818;2023-07-31T02:13:38;31.80;47.30
23618;DHT22;18207;32.078;34.818;2023-07-31T02:16:11;31.80;47.30
23618;DHT22;18207;32.078;34.818;2023-07-31T02:18:41;31.80;47.30
23618;DHT22;18207;32.078;34.818;2023-07-31T02:21:12;31.80;47.30
23618;DHT22;18207;32.078;34.818;2023-07-31T02:23:41;31.80;47.30
23618;DHT22;18207;32.078;34.818;2023-07-31T02:26:12;31.80;47.30
23618;DHT22;18207;32.078;34.818;2023-07-31T02:28:44;31.80;47.30
23618;DHT22;18207;32.078;34.818;2023-07-31T02:31:14;31.80;47.30
23618;DHT22;18207;32.078;34.818;2023-07-31T02:33:48;31.80;47.30
23618;DHT22;18207;32.078;34.818;2023-07-31T02:36:19;31.80;47.30
23618;DHT22;18207;32.078;34.818;2023-07-31T02:38:49;31.80;47.30
23618;DHT22;18207;32.078;34.818;2023-07-31T02:41:19;31.80;47.30
23618;DHT22;18207;32.078;34.818;2023-07-31T02:43:51;31.80;47.30
23618;DHT22;18207;32.078;34.818;2023-07-31T02:46:21;31.80;47.40
23618;DHT22;18207;32.078;34.818;2023-07-31T02:48:52;31.80;47.40
23618;DHT22;18207;32.078;34.818;2023-07-31T02:51:23;31.80;47.40
23618;DHT22;18207;32.078;34.818;2023-07-31T02:53:53;31.80;47.50
23618;DHT22;18207;32.078;34.818;2023-07-31T02:56:23;31.80;47.40
23618;DHT22;18207;32.078;34.818;2023-07-31T02:58:56;31.80;47.40
23618;DHT22;18207;32.078;34.818;2023-07-31T03:01:25;31.80;47.40
23618;DHT22;18207;32.078;34.818;2023-07-31T03:03:56;31.80;47.30
23618;DHT22;18207;32.078;34.818;2023-07-31T03:06:26;31.70;47.30
23618;DHT22;18207;32.078;34.818;2023-07-31T03:08:56;31.70;47.30
23618;DHT22;18207;32.078;34.818;2023-07-31T03:11:26;31.70;47.40
23618;DHT22;18207;32.078;34.818;2023-07-31T03:13:58;31.70;47.40
23618;DHT22;18207;32.078;34.818;2023-07-31T03:16:28;31.70;47.40
23618;DHT22;18207;32.078;34.818;2023-07-31T03:18:59;31.70;47.40
23618;DHT22;18207;32.078;34.818;2023-07-31T03:21:29;31.70;47.50
23618;DHT22;18207;32.078;34.818;2023-07-31T03:23:59;31.70;47.50
23618;DHT22;18207;32.078;34.818;2023-07-31T03:26:40;31.70;47.50
23618;DHT22;18207;32.078;34.818;2023-07-31T03:29:12;31.70;47.50
23618;DHT22;18207;32.078;34.818;2023-07-31T03:31:42;31.70;47.50
23618;DHT22;18207;32.078;34.818;2023-07-31T03:34:13;31.60;47.50
23618;DHT22;18207;32.078;34.818;2023-07-31T03:36:43;31.70;47.50
23618;DHT22;18207;32.078;34.818;2023-07-31T03:39:13;31.60;47.40
23618;DHT22;18207;32.078;34.818;2023-07-31T03:41:43;31.70;47.50
23618;DHT22;18207;32.078;34.818;2023-07-31T03:44:16;31.70;47.50
23618;DHT22;18207;32.078;34.818;2023-07-31T03:46:46;31.60;47.50
23618;DHT22;18207;32.078;34.818;2023-07-31T03:49:17;31.70;47.60
23618;DHT22;18207;32.078;34.818;2023-07-31T03:51:46;31.70;47.60
23618;DHT22;18207;32.078;34.818;2023-07-31T03:54:17;31.70;47.60
23618;DHT22;18207;32.078;34.818;2023-07-31T03:56:47;31.70;47.50
23618;DHT22;18207;32.078;34.818;2023-07-31T03:59:19;31.70;47.60
23618;DHT22;18207;32.078;34.818;2023-07-31T04:01:49;31.60;47.50
23618;DHT22;18207;32.078;34.818;2023-07-31T04:04:19;31.70;47.60
23618;DHT22;18207;32.078;34.818;2023-07-31T04:06:49;31.70;47.60
23618;DHT22;18207;32.078;34.818;2023-07-31T04:09:20;31.70;47.70
23618;DHT22;18207;32.078;34.818;2023-07-31T04:11:50;31.70;47.70
23618;DHT22;18207;32.078;34.818;2023-07-31T04:14:22;31.70;47.70
23618;DHT22;18207;32.078;34.818;2023-07-31T04:16:53;31.70;47.70
23618;DHT22;18207;32.078;34.818;2023-07-31T04:19:24;31.80;47.80
23618;DHT22;18207;32.078;34.818;2023-07-31T04:21:53;31.80;47.70
23618;DHT22;18207;32.078;34.818;2023-07-31T04:24:24;31.80;47.70
23618;DHT22;18207;32.078;34.818;2023-07-31T04:26:55;31.80;47.70
23618;DHT22;18207;32.078;34.818;2023-07-31T04:29:27;31.80;47.70
23618;DHT22;18207;32.078;34.818;2023-07-31T04:31:57;31.80;47.70
23618;DHT22;18207;32.078;34.818;2023-07-31T04:34:27;31.90;47.70
23618;DHT22;18207;32.078;34.818;2023-07-31T04:36:56;31.90;47.70
23618;DHT22;18207;32.078;34.818;2023-07-31T04:39:26;31.90;47.70
23618;DHT22;18207;32.078;34.818;2023-07-31T04:41:56;31.90;47.60
23618;DHT22;18207;32.078;34.818;2023-07-31T04:44:29;32.00;47.70
23618;DHT22;18207;32.078;34.818;2023-07-31T04:46:59;32.00;47.70
23618;DHT22;18207;32.078;34.818;2023-07-31T04:49:29;32.00;47.60
23618;DHT22;18207;32.078;34.818;2023-07-31T04:52:00;32.10;47.70
23618;DHT22;18207;32.078;34.818;2023-07-31T04:54:30;32.10;47.60
23618;DHT22;18207;32.078;34.818;2023-07-31T04:57:01;32.10;47.50
23618;DHT22;18207;32.078;34.818;2023-07-31T04:59:36;32.10;48.10
23618;DHT22;18207;32.078;34.818;2023-07-31T05:02:08;32.20;47.50
23618;DHT22;18207;32.078;34.818;2023-07-31T05:04:38;32.20;47.50
23618;DHT22;18207;32.078;34.818;2023-07-31T05:07:08;32.20;47.40
23618;DHT22;18207;32.078;34.818;2023-07-31T05:09:39;32.30;47.40
23618;DHT22;18207;32.078;34.818;2023-07-31T05:12:09;32.30;47.40
23618;DHT22;18207;32.078;34.818;2023-07-31T05:14:42;32.30;47.30
23618;DHT22;18207;32.078;34.818;2023-07-31T05:17:13;32.40;47.30
23618;DHT22;18207;32.078;34.818;2023-07-31T05:19:44;32.40;47.30
23618;DHT22;18207;32.078;34.818;2023-07-31T05:22:14;32.50;47.30
23618;DHT22;18207;32.078;34.818;2023-07-31T05:24:45;32.50;47.80
23618;DHT22;18207;32.078;34.818;2023-07-31T05:27:16;32.50;47.20
23618;DHT22;18207;32.078;34.818;2023-07-31T05:29:48;32.50;47.20
23618;DHT22;18207;32.078;34.818;2023-07-31T05:32:18;32.50;47.20
23618;DHT22;18207;32.078;34.818;2023-07-31T05:34:51;32.60;47.10
23618;DHT22;18207;32.078;34.818;2023-07-31T05:37:22;32.60;47.10
23618;DHT22;18207;32.078;34.818;2023-07-31T05:39:52;32.70;47.00
23618;DHT22;18207;32.078;34.818;2023-07-31T05:42:22;32.70;47.00
23618;DHT22;18207;32.078;34.818;2023-07-31T05:44:55;32.70;46.90
23618;DHT22;18207;32.078;34.818;2023-07-31T05:47:25;32.80;46.90
23618;DHT22;18207;32.078;34.818;2023-07-31T05:49:55;32.80;46.80
23618;DHT22;18207;32.078;34.818;2023-07-31T05:52:25;32.80;46.70
23618;DHT22;18207;32.078;34.818;2023-07-31T05:54:56;32.90;46.70
23618;DHT22;18207;32.078;34.818;2023-07-31T05:57:27;32.90;46.60
23618;DHT22;18207;32.078;34.818;2023-07-31T05:59:59;33.00;46.60
23618;DHT22;18207;32.078;34.818;2023-07-31T06:02:29;33.00;46.60
23618;DHT22;18207;32.078;34.818;2023-07-31T06:05:05;33.00;46.50
23618;DHT22;18207;32.078;34.818;2023-07-31T06:07:35;33.10;46.50
23618;DHT22;18207;32.078;34.818;2023-07-31T06:10:07;33.10;46.50
23618;DHT22;18207;32.078;34.818;2023-07-31T06:12:37;33.20;47.00
23618;DHT22;18207;32.078;34.818;2023-07-31T06:15:10;33.20;46.30
23618;DHT22;18207;32.078;34.818;2023-07-31T06:17:40;33.30;46.30
23618;DHT22;18207;32.078;34.818;2023-07-31T06:20:11;33.30;46.30
23618;DHT22;18207;32.078;34.818;2023-07-31T06:22:42;33.30;46.20
23618;DHT22;18207;32.078;34.818;2023-07-31T06:25:12;33.40;46.10
23618;DHT22;18207;32.078;34.818;2023-07-31T06:27:43;33.40;46.00
23618;DHT22;18207;32.078;34.818;2023-07-31T06:30:15;33.50;46.00
23618;DHT22;18207;32.078;34.818;2023-07-31T06:32:46;33.50;45.90
23618;DHT22;18207;32.078;34.818;2023-07-31T06:35:15;33.60;45.90
23618;DHT22;18207;32.078;34.818;2023-07-31T06:37:45;33.60;45.80
23618;DHT22;18207;32.078;34.818;2023-07-31T06:40:16;33.70;45.70
23618;DHT22;18207;32.078;34.818;2023-07-31T06:42:47;33.80;45.80
23618;DHT22;18207;32.078;34.818;2023-07-31T06:45:19;33.80;45.70
23618;DHT22;18207;32.078;34.818;2023-07-31T06:47:50;33.90;45.60
23618;DHT22;18207;32.078;34.818;2023-07-31T06:50:20;33.90;45.50
23618;DHT22;18207;32.078;34.818;2023-07-31T06:52:51;34.00;45.40
23618;DHT22;18207;32.078;34.818;2023-07-31T06:55:21;34.10;45.20
23618;DHT22;18207;32.078;34.818;2023-07-31T06:57:54;34.10;45.10
23618;DHT22;18207;32.078;34.818;2023-07-31T07:00:27;34.10;45.00
23618;DHT22;18207;32.078;34.818;2023-07-31T07:02:58;34.20;44.90
23618;DHT22;18207;32.078;34.818;2023-07-31T07:05:28;34.30;44.90
23618;DHT22;18207;32.078;34.818;2023-07-31T07:07:59;34.30;44.80
23618;DHT22;18207;32.078;34.818;2023-07-31T07:10:29;34.40;44.70
23618;DHT22;18207;32.078;34.818;2023-07-31T07:12:59;34.40;44.60
23618;DHT22;18207;32.078;34.818;2023-07-31T07:15:30;34.50;44.60
23618;DHT22;18207;32.078;34.818;2023-07-31T07:18:01;34.50;44.50
23618;DHT22;18207;32.078;34.818;2023-07-31T07:20:31;34.60;44.40
23618;DHT22;18207;32.078;34.818;2023-07-31T07:23:02;34.60;44.30
23618;DHT22;18207;32.078;34.818;2023-07-31T07:25:32;34.70;44.20
23618;DHT22;18207;32.078;34.818;2023-07-31T07:28:03;34.70;44.10
23618;DHT22;18207;32.078;34.818;2023-07-31T07:30:35;34.80;44.10
23618;DHT22;18207;32.078;34.818;2023-07-31T07:33:06;34.80;44.00
23618;DHT22;18207;32.078;34.818;2023-07-31T07:35:37;34.80;43.80
23618;DHT22;18207;32.078;34.818;2023-07-31T07:38:07;34.90;43.80
23618;DHT22;18207;32.078;34.818;2023-07-31T07:40:39;34.90;43.80
23618;DHT22;18207;32.078;34.818;2023-07-31T07:43:09;35.00;43.90
23618;DHT22;18207;32.078;34.818;2023-07-31T07:45:42;35.00;43.80
23618;DHT22;18207;32.078;34.818;2023-07-31T07:48:12;35.10;43.80
23618;DHT22;18207;32.078;34.818;2023-07-31T07:50:42;35.10;43.80
23618;DHT22;18207;32.078;34.818;2023-07-31T07:53:12;35.10;43.70
23618;DHT22;18207;32.078;34.818;2023-07-31T07:55:45;35.20;44.30
23618;DHT22;18207;32.078;34.818;2023-07-31T07:58:16;35.20;43.60
23618;DHT22;18207;32.078;34.818;2023-07-31T08:00:51;35.20;43.50
23618;DHT22;18207;32.078;34.818;2023-07-31T08:03:22;35.30;43.50
23618;DHT22;18207;32.078;34.818;2023-07-31T08:05:52;35.30;43.50
23618;DHT22;18207;32.078;34.818;2023-07-31T08:08:28;35.40;43.50
23618;DHT22;18207;32.078;34.818;2023-07-31T08:10:58;35.40;43.50
23618;DHT22;18207;32.078;34.818;2023-07-31T08:13:34;35.40;43.30
23618;DHT22;18207;32.078;34.818;2023-07-31T08:16:07;35.50;43.30
23618;DHT22;18207;32.078;34.818;2023-07-31T08:18:38;35.50;43.30
23618;DHT22;18207;32.078;34.818;2023-07-31T08:21:10;35.50;43.20
23618;DHT22;18207;32.078;34.818;2023-07-31T08:23:40;35.50;43.10
23618;DHT22;18207;32.078;34.818;2023-07-31T08:26:15;35.60;42.90
23618;DHT22;18207;32.078;34.818;2023-07-31T08:28:46;35.60;43.30
23618;DHT22;18207;32.078;34.818;2023-07-31T08:31:19;35.60;42.60
23618;DHT22;18207;32.078;34.818;2023-07-31T08:33:49;35.60;42.50
23618;DHT22;18207;32.078;34.818;2023-07-31T08:36:19;35.60;42.60
23618;DHT22;18207;32.078;34.818;2023-07-31T08:38:49;35.60;42.70
23618;DHT22;18207;32.078;34.818;2023-07-31T08:41:19;35.70;42.90
23618;DHT22;18207;32.078;34.818;2023-07-31T08:43:51;35.70;42.70
23618;DHT22;18207;32.078;34.818;2023-07-31T08:46:25;35.70;42.80
23618;DHT22;18207;32.078;34.818;2023-07-31T08:48:55;35.70;42.70
23618;DHT22;18207;32.078;34.818;2023-07-31T08:51:27;35.70;42.70
23618;DHT22;18207;32.078;34.818;2023-07-31T08:53:57;35.70;42.80
23618;DHT22;18207;32.078;34.818;2023-07-31T08:56:27;35.80;42.60
23618;DHT22;18207;32.078;34.818;2023-07-31T08:58:59;35.80;42.70
23618;DHT22;18207;32.078;34.818;2023-07-31T09:01:37;35.80;42.40
23618;DHT22;18207;32.078;34.818;2023-07-31T09:04:19;35.80;42.40
23618;DHT22;18207;32.078;34.818;2023-07-31T09:06:51;35.80;42.40
23618;DHT22;18207;32.078;34.818;2023-07-31T09:09:31;35.80;42.40
23618;DHT22;18207;32.078;34.818;2023-07-31T09:12:02;35.80;42.40
23618;DHT22;18207;32.078;34.818;2023-07-31T09:14:34;35.80;42.40
23618;DHT22;18207;32.078;34.818;2023-07-31T09:17:07;35.80;42.40
23618;DHT22;18207;32.078;34.818;2023-07-31T09:19:37;35.80;42.40
23618;DHT22;18207;32.078;34.818;2023-07-31T09:22:08;35.80;42.40
23618;DHT22;18207;32.078;34.818;2023-07-31T09:24:39;35.80;42.30
23618;DHT22;18207;32.078;34.818;2023-07-31T09:27:10;35.90;42.40
23618;DHT22;18207;32.078;34.818;2023-07-31T09:29:40;35.90;42.40
23618;DHT22;18207;32.078;34.818;2023-07-31T09:32:18;35.90;42.40
23618;DHT22;18207;32.078;34.818;2023-07-31T09:34:48;35.90;42.50
23618;DHT22;18207;32.078;34.818;2023-07-31T09:37:18;35.90;42.50
23618;DHT22;18207;32.078;34.818;2023-07-31T09:39:49;35.90;42.40
23618;DHT22;18207;32.078;34.818;2023-07-31T09:42:27;35.90;42.40
23618;DHT22;18207;32.078;34.818;2023-07-31T09:45:07;35.90;42.30
23618;DHT22;18207;32.078;34.818;2023-07-31T09:47:39;35.90;42.10
23618;DHT22;18207;32.078;34.818;2023-07-31T09:50:19;35.90;42.10
23618;DHT22;18207;32.078;34.818;2023-07-31T09:52:51;35.90;42.70
23618;DHT22;18207;32.078;34.818;2023-07-31T09:55:21;35.90;41.90
23618;DHT22;18207;32.078;34.818;2023-07-31T09:57:52;35.90;42.10
23618;DHT22;18207;32.078;34.818;2023-07-31T10:00:26;35.90;42.20
23618;DHT22;18207;32.078;34.818;2023-07-31T10:03:04;35.90;42.30
23618;DHT22;18207;32.078;34.818;2023-07-31T10:05:38;35.90;42.30
23618;DHT22;18207;32.078;34.818;2023-07-31T10:08:14;35.90;42.30
23618;DHT22;18207;32.078;34.818;2023-07-31T10:10:46;35.90;42.40
23618;DHT22;18207;32.078;34.818;2023-07-31T10:13:17;35.80;42.40
23618;DHT22;18207;32.078;34.818;2023-07-31T10:15:50;35.90;42.50
23618;DHT22;18207;32.078;34.818;2023-07-31T10:18:23;35.90;42.40
23618;DHT22;18207;32.078;34.818;2023-07-31T10:20:55;35.90;42.40
23618;DHT22;18207;32.078;34.818;2023-07-31T10:23:26;35.90;42.30
23618;DHT22;18207;32.078;34.818;2023-07-31T10:25:57;35.90;42.20
23618;DHT22;18207;32.078;34.818;2023-07-31T10:28:32;35.90;42.10
23618;DHT22;18207;32.078;34.818;2023-07-31T10:31:05;35.90;42.10
23618;DHT22;18207;32.078;34.818;2023-07-31T10:33:40;35.90;42.10
23618;DHT22;18207;32.078;34.818;2023-07-31T10:36:17;35.90;42.10
23618;DHT22;18207;32.078;34.818;2023-07-31T10:38:49;35.80;42.10
23618;DHT22;18207;32.078;34.818;2023-07-31T10:41:28;35.90;42.20
23618;DHT22;18207;32.078;34.818;2023-07-31T10:44:00;35.90;42.30
23618;DHT22;18207;32.078;34.818;2023-07-31T10:46:33;35.90;42.40
23618;DHT22;18207;32.078;34.818;2023-07-31T10:49:04;35.90;42.40
23618;DHT22;18207;32.078;34.818;2023-07-31T10:51:35;35.90;42.40
23618;DHT22;18207;32.078;34.818;2023-07-31T10:54:12;35.90;42.30
23618;DHT22;18207;32.078;34.818;2023-07-31T10:56:45;35.90;42.20
23618;DHT22;18207;32.078;34.818;2023-07-31T10:59:16;35.90;42.20
23618;DHT22;18207;32.078;34.818;2023-07-31T11:01:51;35.90;42.20
23618;DHT22;18207;32.078;34.818;2023-07-31T11:04:25;35.90;42.10
23618;DHT22;18207;32.078;34.818;2023-07-31T11:06:59;35.90;41.90
23618;DHT22;18207;32.078;34.818;2023-07-31T11:09:31;35.90;42.00
23618;DHT22;18207;32.078;34.818;2023-07-31T11:12:03;35.90;41.90
23618;DHT22;18207;32.078;34.818;2023-07-31T11:14:34;35.90;41.90
23618;DHT22;18207;32.078;34.818;2023-07-31T11:17:06;36.00;41.90
23618;DHT22;18207;32.078;34.818;2023-07-31T11:19:39;35.90;41.80
23618;DHT22;18207;32.078;34.818;2023-07-31T11:22:09;35.90;41.70
23618;DHT22;18207;32.078;34.818;2023-07-31T11:24:40;35.90;41.80
23618;DHT22;18207;32.078;34.818;2023-07-31T11:27:12;35.90;41.90
23618;DHT22;18207;32.078;34.818;2023-07-31T11:29:42;35.90;42.00
23618;DHT22;18207;32.078;34.818;2023-07-31T11:32:16;35.90;42.00
23618;DHT22;18207;32.078;34.818;2023-07-31T11:34:54;35.90;42.00
23618;DHT22;18207;32.078;34.818;2023-07-31T11:37:25;35.90;42.00
23618;DHT22;18207;32.078;34.818;2023-07-31T11:40:09;35.90;41.90
23618;DHT22;18207;32.078;34.818;2023-07-31T11:42:40;35.90;41.80
23618;DHT22;18207;32.078;34.818;2023-07-31T11:45:11;36.00;41.80
23618;DHT22;18207;32.078;34.818;2023-07-31T11:47:41;35.90;41.80
23618;DHT22;18207;32.078;34.818;2023-07-31T11:50:13;35.90;41.70
23618;DHT22;18207;32.078;34.818;2023-07-31T11:52:45;35.90;41.80
23618;DHT22;18207;32.078;34.818;2023-07-31T11:55:20;35.90;41.70
23618;DHT22;18207;32.078;34.818;2023-07-31T11:57:51;35.90;41.80
23618;DHT22;18207;32.078;34.818;2023-07-31T12:00:24;35.90;41.90
23618;DHT22;18207;32.078;34.818;2023-07-31T12:02:55;35.90;41.80
23618;DHT22;18207;32.078;34.818;2023-07-31T12:05:27;35.90;41.80
23618;DHT22;18207;32.078;34.818;2023-07-31T12:07:57;35.90;41.70
23618;DHT22;18207;32.078;34.818;2023-07-31T12:10:28;35.90;41.70
23618;DHT22;18207;32.078;34.818;2023-07-31T12:13:02;35.80;41.80
23618;DHT22;18207;32.078;34.818;2023-07-31T12:15:37;35.80;41.90
23618;DHT22;18207;32.078;34.818;2023-07-31T12:18:10;35.80;41.90
23618;DHT22;18207;32.078;34.818;2023-07-31T12:20:44;35.80;41.90
23618;DHT22;18207;32.078;34.818;2023-07-31T12:23:17;35.80;41.90
23618;DHT22;18207;32.078;34.818;2023-07-31T12:26:00;35.80;42.00
23618;DHT22;18207;32.078;34.818;2023-07-31T12:28:34;35.80;42.00
23618;DHT22;18207;32.078;34.818;2023-07-31T12:31:07;35.70;42.00
23618;DHT22;18207;32.078;34.818;2023-07-31T12:33:40;35.70;41.90
23618;DHT22;18207;32.078;34.818;2023-07-31T12:36:14;35.70;41.90
23618;DHT22;18207;32.078;34.818;2023-07-31T12:38:45;35.70;41.80
23618;DHT22;18207;32.078;34.818;2023-07-31T12:41:15;35.60;41.80
23618;DHT22;18207;32.078;34.818;2023-07-31T12:43:45;35.60;41.70
23618;DHT22;18207;32.078;34.818;2023-07-31T12:46:15;35.60;41.80
23618;DHT22;18207;32.078;34.818;2023-07-31T12:48:46;35.60;41.90
23618;DHT22;18207;32.078;34.818;2023-07-31T12:51:18;35.60;41.90
23618;DHT22;18207;32.078;34.818;2023-07-31T12:53:48;35.50;41.90
23618;DHT22;18207;32.078;34.818;2023-07-31T12:56:19;35.50;41.80
23618;DHT22;18207;32.078;34.818;2023-07-31T12:58:48;35.50;41.60
23618;DHT22;18207;32.078;34.818;2023-07-31T13:01:18;35.50;41.60
23618;DHT22;18207;32.078;34.818;2023-07-31T13:03:48;35.50;41.80
23618;DHT22;18207;32.078;34.818;2023-07-31T13:06:22;35.50;41.90
23618;DHT22;18207;32.078;34.818;2023-07-31T13:08:52;35.40;42.00
23618;DHT22;18207;32.078;34.818;2023-07-31T13:11:23;35.40;42.10
23618;DHT22;18207;32.078;34.818;2023-07-31T13:13:53;35.40;42.10
23618;DHT22;18207;32.078;34.818;2023-07-31T13:16:23;35.40;42.00
23618;DHT22;18207;32.078;34.818;2023-07-31T13:18:54;35.40;42.10
23618;DHT22;18207;32.078;34.818;2023-07-31T13:21:27;35.40;42.20
23618;DHT22;18207;32.078;34.818;2023-07-31T13:23:57;35.30;42.20
23618;DHT22;18207;32.078;34.818;2023-07-31T13:26:28;35.30;42.10
23618;DHT22;18207;32.078;34.818;2023-07-31T13:28:58;35.30;42.00
23618;DHT22;18207;32.078;34.818;2023-07-31T13:31:29;35.30;42.00
23618;DHT22;18207;32.078;34.818;2023-07-31T13:33:59;35.30;42.10
23618;DHT22;18207;32.078;34.818;2023-07-31T13:36:31;35.30;42.90
23618;DHT22;18207;32.078;34.818;2023-07-31T13:39:01;35.20;42.30
23618;DHT22;18207;32.078;34.818;2023-07-31T13:41:32;35.20;42.30
23618;DHT22;18207;32.078;34.818;2023-07-31T13:44:03;35.20;42.30
23618;DHT22;18207;32.078;34.818;2023-07-31T13:46:33;35.20;42.30
23618;DHT22;18207;32.078;34.818;2023-07-31T13:49:03;35.20;42.30
23618;DHT22;18207;32.078;34.818;2023-07-31T13:51:36;35.20;42.30
23618;DHT22;18207;32.078;34.818;2023-07-31T13:54:07;35.20;42.40
23618;DHT22;18207;32.078;34.818;2023-07-31T13:56:39;35.20;42.40
23618;DHT22;18207;32.078;34.818;2023-07-31T13:59:10;35.10;42.40
23618;DHT22;18207;32.078;34.818;2023-07-31T14:01:43;35.20;42.50
23618;DHT22;18207;32.078;34.818;2023-07-31T14:04:18;35.10;42.50
23618;DHT22;18207;32.078;34.818;2023-07-31T14:06:51;35.10;42.50
23618;DHT22;18207;32.078;34.818;2023-07-31T14:09:21;35.10;42.50
23618;DHT22;18207;32.078;34.818;2023-07-31T14:11:51;35.10;42.40
23618;DHT22;18207;32.078;34.818;2023-07-31T14:14:22;35.10;42.50
23618;DHT22;18207;32.078;34.818;2023-07-31T14:16:52;35.00;42.40
23618;DHT22;18207;32.078;34.818;2023-07-31T14:19:22;35.00;42.60
23618;DHT22;18207;32.078;34.818;2023-07-31T14:21:55;35.00;42.60
23618;DHT22;18207;32.078;34.818;2023-07-31T14:24:39;35.00;42.70
23618;DHT22;18207;32.078;34.818;2023-07-31T14:27:10;34.90;42.60
23618;DHT22;18207;32.078;34.818;2023-07-31T14:29:40;34.90;42.60
23618;DHT22;18207;32.078;34.818;2023-07-31T14:32:11;34.90;42.70
23618;DHT22;18207;32.078;34.818;2023-07-31T14:34:41;34.90;42.80
23618;DHT22;18207;32.078;34.818;2023-07-31T14:37:12;34.80;42.80
23618;DHT22;18207;32.078;34.818;2023-07-31T14:39:42;34.90;42.80
23618;DHT22;18207;32.078;34.818;2023-07-31T14:42:13;34.80;42.60
23618;DHT22;18207;32.078;34.818;2023-07-31T14:44:44;34.80;42.70
23618;DHT22;18207;32.078;34.818;2023-07-31T14:47:14;34.80;42.60
23618;DHT22;18207;32.078;34.818;2023-07-31T14:49:45;34.70;42.70
23618;DHT22;18207;32.078;34.818;2023-07-31T14:52:17;34.70;42.80
23618;DHT22;18207;32.078;34.818;2023-07-31T14:54:47;34.80;43.00
23618;DHT22;18207;32.078;34.818;2023-07-31T14:57:18;34.70;42.90
23618;DHT22;18207;32.078;34.818;2023-07-31T14:59:51;34.70;43.00
23618;DHT22;18207;32.078;34.818;2023-07-31T15:02:21;34.60;42.90
23618;DHT22;18207;32.078;34.818;2023-07-31T15:04:52;34.70;43.20
23618;DHT22;18207;32.078;34.818;2023-07-31T15:07:25;34.70;42.90
23618;DHT22;18207;32.078;34.818;2023-07-31T15:09:55;34.70;43.00
23618;DHT22;18207;32.078;34.818;2023-07-31T15:12:26;34.60;43.70
23618;DHT22;18207;32.078;34.818;2023-07-31T15:14:57;34.60;43.20
23618;DHT22;18207;32.078;34.818;2023-07-31T15:17:27;34.60;43.20
23618;DHT22;18207;32.078;34.818;2023-07-31T15:19:57;34.60;43.30
23618;DHT22;18207;32.078;34.818;2023-07-31T15:22:32;34.60;43.50
23618;DHT22;18207;32.078;34.818;2023-07-31T15:25:02;34.50;43.60
23618;DHT22;18207;32.078;34.818;2023-07-31T15:27:33;34.50;43.60
23618;DHT22;18207;32.078;34.818;2023-07-31T15:30:04;34.50;43.60
23618;DHT22;18207;32.078;34.818;2023-07-31T15:32:37;34.50;43.60
23618;DHT22;18207;32.078;34.818;2023-07-31T15:35:08;34.50;43.70
23618;DHT22;18207;32.078;34.818;2023-07-31T15:37:41;34.50;43.80
23618;DHT22;18207;32.078;34.818;2023-07-31T15:40:12;34.40;44.00
23618;DHT22;18207;32.078;34.818;2023-07-31T15:42:42;34.40;43.80